createdAt,value
2017-10-01T00:00:48.772Z,959.96
2017-10-01T00:02:41.968Z,959.96
2017-10-01T00:03:41.816Z,959.99
2017-10-01T00:05:44.004Z,960.02
2017-10-01T00:06:35.332Z,960.03
2017-10-01T00:08:38.335Z,960.02
2017-10-01T00:09:36.176Z,960.00
2017-10-01T00:11:31.900Z,960.04
2017-10-01T00:12:22.727Z,960.05
2017-10-01T00:14:16.108Z,960.04
2017-10-01T00:15:24.888Z,960.04
2017-10-01T00:17:18.847Z,960.07
2017-10-01T00:18:09.127Z,960.07
2017-10-01T00:20:11.261Z,960.03
2017-10-01T00:21:12.310Z,960.05
2017-10-01T00:23:05.623Z,960.06
2017-10-01T00:23:56.924Z,960.06
2017-10-01T00:25:58.124Z,960.10
2017-10-01T00:26:59.048Z,960.10
2017-10-01T00:28:53.640Z,960.07
2017-10-01T00:29:44.820Z,960.11
2017-10-01T00:31:39.347Z,960.10
2017-10-01T00:32:48.910Z,960.08
2017-10-01T00:34:44.466Z,960.06
2017-10-01T00:35:35.719Z,960.10
2017-10-01T00:37:38.826Z,960.11
2017-10-01T00:38:38.843Z,960.12
2017-10-01T00:40:31.116Z,960.17
2017-10-01T00:41:31.215Z,960.18
2017-10-01T00:43:25.680Z,960.19
2017-10-01T00:44:17.970Z,960.21
2017-10-01T00:46:19.614Z,960.20
2017-10-01T00:47:10.966Z,960.21
2017-10-01T00:49:14.583Z,960.26
2017-10-01T00:50:04.397Z,960.25
2017-10-01T00:52:06.588Z,960.26
2017-10-01T00:53:06.451Z,960.23
2017-10-01T00:55:01.882Z,960.24
2017-10-01T00:55:53.289Z,960.25
2017-10-01T00:57:55.413Z,960.25
2017-10-01T00:58:46.595Z,960.23
2017-10-01T01:00:50.283Z,960.28
2017-10-01T01:01:48.337Z,960.26
2017-10-01T01:03:44.811Z,960.27
2017-10-01T01:04:44.758Z,960.23
2017-10-01T01:06:36.339Z,960.24
2017-10-01T01:07:28.737Z,960.26
2017-10-01T01:09:31.780Z,960.26
2017-10-01T01:10:23.889Z,960.29
2017-10-01T01:12:28.160Z,960.28
2017-10-01T01:13:19.344Z,960.29
2017-10-01T01:15:22.240Z,960.27
2017-10-01T01:16:15.007Z,960.30
2017-10-01T01:18:18.039Z,960.30
2017-10-01T01:19:09.204Z,960.30
2017-10-01T01:21:03.604Z,960.30
2017-10-01T01:22:03.474Z,960.33
2017-10-01T01:23:58.105Z,960.33
2017-10-01T01:24:57.987Z,960.36
2017-10-01T01:27:01.109Z,960.35
2017-10-01T01:27:52.451Z,960.36
2017-10-01T01:29:46.849Z,960.37
2017-10-01T01:30:47.017Z,960.34
2017-10-01T01:32:49.249Z,960.37
2017-10-01T01:33:40.253Z,960.36
2017-10-01T01:35:42.418Z,960.38
2017-10-01T01:36:33.694Z,960.36
2017-10-01T01:38:35.830Z,960.41
2017-10-01T01:39:28.093Z,960.41
2017-10-01T01:41:32.134Z,960.39
2017-10-01T01:42:31.235Z,960.43
2017-10-01T01:44:25.541Z,960.44
2017-10-01T01:45:17.981Z,960.46
2017-10-01T01:47:21.055Z,960.46
2017-10-01T01:48:12.299Z,960.49
2017-10-01T01:50:14.636Z,960.51
2017-10-01T01:51:05.945Z,960.50
2017-10-01T01:53:00.391Z,960.54
2017-10-01T01:54:09.156Z,960.54
2017-10-01T01:56:03.444Z,960.55
2017-10-01T01:56:53.817Z,960.60
2017-10-01T01:58:47.291Z,960.58
2017-10-01T01:59:47.240Z,960.57
2017-10-01T02:01:49.232Z,960.60
2017-10-01T02:02:41.646Z,960.55
2017-10-01T02:04:43.322Z,960.58
2017-10-01T02:05:36.134Z,960.56
2017-10-01T02:07:29.482Z,960.59
2017-10-01T02:08:29.549Z,960.60
2017-10-01T02:10:23.950Z,960.56
2017-10-01T02:11:23.870Z,960.62
2017-10-01T02:13:27.017Z,960.61
2017-10-01T02:14:17.241Z,960.63
2017-10-01T02:16:10.778Z,960.62
2017-10-01T02:17:10.768Z,960.63
2017-10-01T02:19:05.154Z,960.64
2017-10-01T02:20:05.124Z,960.63
2017-10-01T02:21:58.578Z,960.65
2017-10-01T02:23:07.515Z,960.69
2017-10-01T02:25:00.729Z,960.68
2017-10-01T02:25:51.898Z,960.69
2017-10-01T02:27:45.339Z,960.67
2017-10-01T02:28:45.436Z,960.69
2017-10-01T02:30:47.636Z,960.69
2017-10-01T02:31:38.761Z,960.68
2017-10-01T02:33:32.211Z,960.68
2017-10-01T02:34:32.369Z,960.69
2017-10-01T02:36:25.648Z,960.72
2017-10-01T02:37:25.576Z,960.72
2017-10-01T02:39:20.076Z,960.69
2017-10-01T02:40:19.998Z,960.71
2017-10-01T02:42:23.116Z,960.73
2017-10-01T02:43:15.381Z,960.74
2017-10-01T02:45:17.492Z,960.72
2017-10-01T02:46:08.863Z,960.73
2017-10-01T02:48:13.980Z,960.69
2017-10-01T02:49:04.256Z,960.68
2017-10-01T02:50:57.398Z,960.71
2017-10-01T02:51:57.249Z,960.72
2017-10-01T02:53:59.532Z,960.75
2017-10-01T02:54:50.707Z,960.73
2017-10-01T02:56:44.168Z,960.72
2017-10-01T02:57:44.069Z,960.72
2017-10-01T02:59:37.573Z,960.75
2017-10-01T03:00:37.540Z,960.77
2017-10-01T03:02:30.942Z,960.73
2017-10-01T03:03:40.699Z,960.73
2017-10-01T03:05:31.656Z,960.72
2017-10-01T03:06:23.981Z,960.73
2017-10-01T03:08:26.230Z,960.73
2017-10-01T03:09:17.399Z,960.73
2017-10-01T03:11:11.833Z,960.77
2017-10-01T03:12:11.783Z,960.76
2017-10-01T03:14:06.222Z,960.74
2017-10-01T03:15:06.210Z,960.72
2017-10-01T03:17:00.704Z,960.74
2017-10-01T03:18:00.512Z,960.73
2017-10-01T03:20:02.686Z,960.76
2017-10-01T03:20:53.949Z,960.82
2017-10-01T03:22:56.100Z,960.85
2017-10-01T03:23:48.516Z,960.88
2017-10-01T03:25:49.576Z,960.91
2017-10-01T03:26:41.907Z,960.91
2017-10-01T03:28:44.909Z,960.95
2017-10-01T03:29:36.314Z,960.95
2017-10-01T03:31:38.265Z,960.95
2017-10-01T03:32:39.536Z,960.97
2017-10-01T03:34:32.892Z,960.95
2017-10-01T03:35:32.826Z,960.99
2017-10-01T03:37:26.200Z,960.96
2017-10-01T03:38:17.612Z,960.99
2017-10-01T03:40:18.686Z,960.95
2017-10-01T03:41:11.026Z,961.01
2017-10-01T03:43:13.675Z,960.99
2017-10-01T03:44:04.855Z,961.00
2017-10-01T03:46:07.871Z,960.96
2017-10-01T03:46:59.293Z,960.99
2017-10-01T03:49:02.322Z,961.02
2017-10-01T03:49:53.734Z,961.04
2017-10-01T03:51:56.693Z,961.05
2017-10-01T03:52:47.109Z,961.07
2017-10-01T03:54:49.200Z,961.06
2017-10-01T03:55:50.295Z,961.07
2017-10-01T03:57:44.609Z,961.10
2017-10-01T03:58:34.962Z,961.10
2017-10-01T04:00:28.471Z,961.11
2017-10-01T04:01:28.311Z,961.09
2017-10-01T04:03:22.805Z,961.12
2017-10-01T04:04:22.809Z,961.12
2017-10-01T04:06:17.306Z,961.14
2017-10-01T04:07:24.819Z,961.15
2017-10-01T04:09:20.262Z,961.22
2017-10-01T04:10:11.561Z,961.21
2017-10-01T04:12:13.639Z,961.17
2017-10-01T04:13:06.008Z,961.18
2017-10-01T04:15:10.126Z,961.19
2017-10-01T04:16:01.367Z,961.20
2017-10-01T04:17:54.917Z,961.20
2017-10-01T04:18:54.864Z,961.18
2017-10-01T04:20:57.876Z,961.15
2017-10-01T04:21:50.203Z,961.21
2017-10-01T04:23:52.277Z,961.23
2017-10-01T04:24:54.136Z,961.27
2017-10-01T04:26:46.717Z,961.29
2017-10-01T04:27:38.012Z,961.31
2017-10-01T04:29:31.481Z,961.30
2017-10-01T04:30:31.479Z,961.30
2017-10-01T04:32:34.557Z,961.33
2017-10-01T04:33:24.886Z,961.32
2017-10-01T04:35:18.504Z,961.33
2017-10-01T04:36:18.237Z,961.32
2017-10-01T04:38:11.726Z,961.34
2017-10-01T04:39:11.688Z,961.36
2017-10-01T04:41:12.840Z,961.38
2017-10-01T04:42:05.085Z,961.38
2017-10-01T04:44:07.131Z,961.39
2017-10-01T04:44:58.474Z,961.43
2017-10-01T04:46:51.507Z,961.49
2017-10-01T04:47:59.063Z,961.49
2017-10-01T04:49:44.870Z,961.54
2017-10-01T04:50:44.935Z,961.55
2017-10-01T04:52:47.963Z,961.56
2017-10-01T04:53:39.322Z,961.54
2017-10-01T04:55:44.575Z,961.54
2017-10-01T04:56:42.286Z,961.53
2017-10-01T04:58:36.786Z,961.57
2017-10-01T04:59:29.144Z,961.57
2017-10-01T05:01:30.167Z,961.62
2017-10-01T05:02:31.221Z,961.62
2017-10-01T05:04:25.621Z,961.61
2017-10-01T05:05:23.598Z,961.60
2017-10-01T05:07:20.043Z,961.60
2017-10-01T05:08:18.167Z,961.59
2017-10-01T05:10:04.886Z,961.61
2017-10-01T05:11:04.867Z,961.59
2017-10-01T05:13:06.020Z,961.57
2017-10-01T05:13:58.316Z,961.55
2017-10-01T05:16:00.401Z,961.57
2017-10-01T05:16:51.644Z,961.54
2017-10-01T05:18:53.835Z,961.57
2017-10-01T05:19:55.774Z,961.55
2017-10-01T05:21:39.833Z,961.54
2017-10-01T05:22:47.432Z,961.54
2017-10-01T05:24:41.779Z,961.52
2017-10-01T05:25:34.287Z,961.51
2017-10-01T05:27:27.581Z,961.54
2017-10-01T05:28:27.636Z,961.54
2017-10-01T05:30:28.819Z,961.51
2017-10-01T05:31:21.092Z,961.55
2017-10-01T05:33:16.503Z,961.53
2017-10-01T05:34:16.481Z,961.55
2017-10-01T05:36:12.374Z,961.53
2017-10-01T05:37:12.344Z,961.51
2017-10-01T05:39:15.946Z,961.47
2017-10-01T05:40:06.781Z,961.53
2017-10-01T05:42:07.981Z,961.54
2017-10-01T05:43:00.332Z,961.51
2017-10-01T05:44:54.660Z,961.52
2017-10-01T05:46:02.468Z,961.57
2017-10-01T05:47:48.004Z,961.59
2017-10-01T05:48:47.976Z,961.55
2017-10-01T05:50:50.246Z,961.57
2017-10-01T05:51:51.217Z,961.56
2017-10-01T05:53:44.525Z,961.59
2017-10-01T05:54:36.922Z,961.60
2017-10-01T05:56:41.969Z,961.65
2017-10-01T05:57:33.217Z,961.62
2017-10-01T05:59:36.309Z,961.69
2017-10-01T06:00:27.612Z,961.70
2017-10-01T06:02:29.963Z,961.70
2017-10-01T06:03:22.031Z,961.70
2017-10-01T06:05:23.106Z,961.72
2017-10-01T06:06:15.553Z,961.69
2017-10-01T06:08:09.972Z,961.78
2017-10-01T06:09:09.897Z,961.77
2017-10-01T06:11:11.944Z,961.79
2017-10-01T06:12:03.372Z,961.80
2017-10-01T06:14:05.449Z,961.78
2017-10-01T06:14:56.743Z,961.80
2017-10-01T06:17:00.021Z,961.79
2017-10-01T06:17:59.073Z,961.76
2017-10-01T06:19:45.659Z,961.80
2017-10-01T06:20:54.288Z,961.77
2017-10-01T06:22:48.743Z,961.78
2017-10-01T06:23:48.768Z,961.80
2017-10-01T06:25:42.833Z,961.87
2017-10-01T06:26:41.825Z,961.82
2017-10-01T06:28:37.239Z,961.78
2017-10-01T06:29:27.457Z,961.81
2017-10-01T06:31:29.597Z,961.83
2017-10-01T06:32:29.525Z,961.84
2017-10-01T06:34:25.113Z,961.89
2017-10-01T06:35:16.342Z,961.93
2017-10-01T06:37:10.843Z,961.91
2017-10-01T06:38:20.407Z,961.96
2017-10-01T06:40:05.225Z,961.97
2017-10-01T06:41:12.415Z,961.96
2017-10-01T06:43:08.766Z,961.96
2017-10-01T06:44:10.231Z,961.93
2017-10-01T06:46:03.770Z,961.97
2017-10-01T06:46:55.065Z,961.97
2017-10-01T06:48:58.135Z,961.97
2017-10-01T06:49:57.242Z,962.03
2017-10-01T06:51:42.967Z,962.01
2017-10-01T06:52:42.839Z,962.03
2017-10-01T06:54:44.690Z,962.04
2017-10-01T06:55:36.936Z,962.05
2017-10-01T06:57:38.970Z,962.05
2017-10-01T06:58:31.275Z,962.10
2017-10-01T07:00:24.779Z,962.12
2017-10-01T07:01:24.719Z,962.14
2017-10-01T07:03:30.088Z,962.12
2017-10-01T07:04:28.380Z,962.19
2017-10-01T07:06:20.215Z,962.19
2017-10-01T07:07:11.721Z,962.24
2017-10-01T07:09:15.684Z,962.26
2017-10-01T07:10:06.020Z,962.23
2017-10-01T07:12:09.050Z,962.25
2017-10-01T07:13:01.461Z,962.28
2017-10-01T07:15:02.736Z,962.24
2017-10-01T07:15:54.832Z,962.24
2017-10-01T07:18:03.984Z,962.26
2017-10-01T07:18:49.228Z,962.26
2017-10-01T07:20:51.326Z,962.29
2017-10-01T07:21:43.165Z,962.33
2017-10-01T07:26:33.386Z,962.35
2017-10-01T07:27:33.261Z,962.36
2017-10-01T07:29:27.591Z,962.38
2017-10-01T07:30:27.729Z,962.35
2017-10-01T07:32:21.040Z,962.36
2017-10-01T07:33:22.312Z,962.40
2017-10-01T07:35:15.519Z,962.43
2017-10-01T07:36:15.503Z,962.46
2017-10-01T07:38:09.898Z,962.50
2017-10-01T07:39:09.970Z,962.51
2017-10-01T07:41:04.309Z,962.55
2017-10-01T07:42:04.376Z,962.54
2017-10-01T07:43:57.786Z,962.54
2017-10-01T07:44:57.725Z,962.58
2017-10-01T07:46:51.207Z,962.56
2017-10-01T07:47:59.843Z,962.55
2017-10-01T07:49:44.178Z,962.55
2017-10-01T07:50:44.246Z,962.54
2017-10-01T07:52:38.570Z,962.59
2017-10-01T07:53:38.537Z,962.60
2017-10-01T07:55:40.942Z,962.62
2017-10-01T07:56:40.783Z,962.67
2017-10-01T07:58:26.476Z,962.65
2017-10-01T07:59:26.486Z,962.66
2017-10-01T08:01:19.442Z,962.67
2017-10-01T08:02:19.406Z,962.71
2017-10-01T08:04:20.420Z,962.72
2017-10-01T08:05:12.834Z,962.73
2017-10-01T08:07:07.328Z,962.78
2017-10-01T08:08:07.199Z,962.78
2017-10-01T08:10:00.652Z,962.79
2017-10-01T08:11:00.631Z,962.80
2017-10-01T08:12:54.035Z,962.77
2017-10-01T08:13:54.081Z,962.74
2017-10-01T08:15:49.456Z,962.80
2017-10-01T08:16:49.420Z,962.75
2017-10-01T08:18:43.003Z,962.77
2017-10-01T08:19:42.918Z,962.81
2017-10-01T08:21:36.318Z,962.80
2017-10-01T08:22:36.283Z,962.81
2017-10-01T08:24:29.297Z,962.79
2017-10-01T08:25:29.400Z,962.80
2017-10-01T08:27:24.673Z,962.75
2017-10-01T08:28:24.674Z,962.77
2017-10-01T08:30:18.149Z,962.79
2017-10-01T08:31:18.134Z,962.80
2017-10-01T08:33:11.600Z,962.79
2017-10-01T08:34:11.569Z,962.81
2017-10-01T08:36:07.817Z,962.80
2017-10-01T08:37:06.994Z,962.77
2017-10-01T08:39:00.999Z,962.80
2017-10-01T08:40:00.984Z,962.76
2017-10-01T08:41:55.518Z,962.81
2017-10-01T08:42:55.402Z,962.80
2017-10-01T08:44:49.863Z,962.82
2017-10-01T08:45:49.895Z,962.87
2017-10-01T08:47:44.319Z,962.82
2017-10-01T08:48:44.263Z,962.81
2017-10-01T08:50:37.643Z,962.82
2017-10-01T08:51:37.713Z,962.81
2017-10-01T08:53:32.057Z,962.81
2017-10-01T08:54:32.077Z,962.82
2017-10-01T08:56:25.521Z,962.84
2017-10-01T08:57:25.503Z,962.87
2017-10-01T08:59:20.276Z,962.81
2017-10-01T09:00:18.916Z,962.84
2017-10-01T09:02:12.405Z,962.84
2017-10-01T09:03:12.402Z,962.86
2017-10-01T09:05:06.875Z,962.87
2017-10-01T09:06:06.699Z,962.80
2017-10-01T09:08:01.263Z,962.84
2017-10-01T09:09:01.168Z,962.76
2017-10-01T09:10:55.656Z,962.78
2017-10-01T09:11:55.606Z,962.78
2017-10-01T09:13:50.971Z,962.79
2017-10-01T09:14:51.040Z,962.79
2017-10-01T09:16:44.406Z,962.75
2017-10-01T09:17:44.383Z,962.76
2017-10-01T09:19:37.885Z,962.79
2017-10-01T09:20:37.962Z,962.77
2017-10-01T09:22:32.290Z,962.78
2017-10-01T09:23:32.271Z,962.75
2017-10-01T09:25:25.859Z,962.73
2017-10-01T09:26:25.762Z,962.76
2017-10-01T09:28:21.258Z,962.72
2017-10-01T09:29:21.209Z,962.72
2017-10-01T09:31:15.491Z,962.69
2017-10-01T09:32:15.171Z,962.64
2017-10-01T09:34:08.584Z,962.64
2017-10-01T09:35:08.707Z,962.60
2017-10-01T09:37:03.078Z,962.59
2017-10-01T09:38:03.051Z,962.62
2017-10-01T09:39:57.552Z,962.60
2017-10-01T09:40:57.412Z,962.61
2017-10-01T09:42:50.890Z,962.64
2017-10-01T09:43:50.901Z,962.65
2017-10-01T09:45:47.281Z,962.65
2017-10-01T09:46:47.283Z,962.59
2017-10-01T09:48:41.711Z,962.60
2017-10-01T09:49:41.822Z,962.65
2017-10-01T09:51:36.056Z,962.61
2017-10-01T09:52:36.116Z,962.62
2017-10-01T09:54:30.583Z,962.60
2017-10-01T09:55:30.712Z,962.59
2017-10-01T09:57:24.038Z,962.62
2017-10-01T09:58:23.967Z,962.62
2017-10-01T10:00:18.399Z,962.63
2017-10-01T10:01:18.411Z,962.60
2017-10-01T10:03:12.769Z,962.59
2017-10-01T10:04:12.813Z,962.63
2017-10-01T10:06:07.241Z,962.63
2017-10-01T10:07:07.287Z,962.57
2017-10-01T10:09:00.603Z,962.59
2017-10-01T10:10:00.680Z,962.58
2017-10-01T10:11:55.061Z,962.59
2017-10-01T10:12:55.135Z,962.58
2017-10-01T10:14:50.543Z,962.52
2017-10-01T10:15:50.522Z,962.54
2017-10-01T10:17:44.810Z,962.53
2017-10-01T10:18:44.831Z,962.49
2017-10-01T10:20:38.354Z,962.51
2017-10-01T10:21:38.371Z,962.50
2017-10-01T10:23:31.717Z,962.48
2017-10-01T10:24:31.754Z,962.47
2017-10-01T10:26:25.205Z,962.50
2017-10-01T10:27:25.124Z,962.50
2017-10-01T10:29:19.634Z,962.49
2017-10-01T10:30:19.634Z,962.53
2017-10-01T10:32:15.010Z,962.56
2017-10-01T10:33:14.996Z,962.57
2017-10-01T10:35:09.426Z,962.51
2017-10-01T10:36:09.505Z,962.52
2017-10-01T10:38:03.875Z,962.52
2017-10-01T10:39:03.973Z,962.50
2017-10-01T10:40:57.232Z,962.53
2017-10-01T10:41:57.256Z,962.49
2017-10-01T10:43:50.311Z,962.51
2017-10-01T10:44:50.262Z,962.51
2017-10-01T10:46:44.689Z,962.55
2017-10-01T10:47:44.778Z,962.56
2017-10-01T10:49:39.213Z,962.55
2017-10-01T10:50:39.145Z,962.52
2017-10-01T10:52:33.560Z,962.50
2017-10-01T10:53:33.515Z,962.48
2017-10-01T10:55:26.972Z,962.44
2017-10-01T10:56:26.981Z,962.46
2017-10-01T10:58:21.356Z,962.49
2017-10-01T10:59:21.363Z,962.48
2017-10-01T11:01:16.801Z,962.44
2017-10-01T11:02:16.849Z,962.43
2017-10-01T11:04:10.152Z,962.48
2017-10-01T11:05:10.777Z,962.43
2017-10-01T11:07:04.639Z,962.41
2017-10-01T11:08:04.624Z,962.43
2017-10-01T11:09:57.655Z,962.40
2017-10-01T11:10:57.647Z,962.41
2017-10-01T11:12:52.096Z,962.40
2017-10-01T11:13:52.036Z,962.43
2017-10-01T11:15:46.494Z,962.45
2017-10-01T11:16:46.504Z,962.60
2017-10-01T11:18:40.914Z,962.51
2017-10-01T11:19:40.901Z,962.51
2017-10-01T11:21:35.280Z,962.53
2017-10-01T11:22:35.373Z,962.55
2017-10-01T11:24:29.765Z,962.48
2017-10-01T11:25:29.741Z,962.46
2017-10-01T11:27:23.156Z,962.38
2017-10-01T11:28:23.217Z,962.37
2017-10-01T11:30:16.519Z,962.27
2017-10-01T11:31:16.594Z,962.33
2017-10-01T11:33:10.031Z,962.30
2017-10-01T11:34:10.036Z,962.31
2017-10-01T11:36:03.517Z,962.26
2017-10-01T11:37:03.444Z,962.23
2017-10-01T11:38:56.869Z,962.20
2017-10-01T11:39:56.956Z,962.19
2017-10-01T11:41:51.301Z,962.20
2017-10-01T11:42:51.229Z,962.15
2017-10-01T11:44:45.731Z,962.16
2017-10-01T11:45:45.713Z,962.15
2017-10-01T11:47:39.156Z,962.08
2017-10-01T11:48:39.119Z,962.04
2017-10-01T11:50:33.532Z,962.02
2017-10-01T11:51:33.511Z,962.02
2017-10-01T11:53:26.978Z,961.97
2017-10-01T11:54:35.720Z,962.03
2017-10-01T11:56:20.371Z,961.97
2017-10-01T11:57:20.465Z,961.97
2017-10-01T11:59:14.819Z,961.92
2017-10-01T12:00:14.813Z,961.97
2017-10-01T12:02:08.250Z,961.96
2017-10-01T12:03:08.208Z,961.93
2017-10-01T12:05:02.705Z,961.97
2017-10-01T12:06:02.660Z,961.94
2017-10-01T12:07:55.649Z,961.90
2017-10-01T12:08:55.653Z,961.93
2017-10-01T12:10:49.145Z,961.91
2017-10-01T12:11:49.058Z,962.09
2017-10-01T12:13:42.491Z,962.11
2017-10-01T12:14:42.513Z,962.12
2017-10-01T12:16:37.022Z,962.06
2017-10-01T12:17:36.902Z,961.97
2017-10-01T12:19:30.921Z,962.09
2017-10-01T12:20:30.987Z,962.12
2017-10-01T12:22:24.413Z,962.19
2017-10-01T12:23:24.371Z,961.85
2017-10-01T12:25:18.830Z,961.84
2017-10-01T12:26:18.840Z,961.86
2017-10-01T12:28:12.257Z,961.80
2017-10-01T12:29:12.248Z,961.84
2017-10-01T12:31:05.642Z,961.85
2017-10-01T12:32:05.655Z,962.08
2017-10-01T12:33:59.126Z,962.09
2017-10-01T12:34:59.075Z,961.87
2017-10-01T12:36:52.505Z,961.83
2017-10-01T12:37:52.527Z,961.82
2017-10-01T12:39:46.996Z,961.87
2017-10-01T12:40:55.592Z,961.87
2017-10-01T12:42:42.351Z,961.97
2017-10-01T12:43:42.444Z,961.97
2017-10-01T12:45:36.881Z,962.01
2017-10-01T12:46:37.005Z,962.04
2017-10-01T12:48:30.227Z,961.94
2017-10-01T12:49:30.225Z,961.96
2017-10-01T12:51:23.602Z,961.97
2017-10-01T12:52:23.622Z,962.02
2017-10-01T12:54:17.003Z,962.00
2017-10-01T12:55:17.104Z,962.00
2017-10-01T12:57:10.744Z,962.00
2017-10-01T12:58:10.728Z,962.02
2017-10-01T13:00:04.183Z,961.95
2017-10-01T13:01:04.177Z,961.96
2017-10-01T13:02:57.663Z,962.04
2017-10-01T13:03:57.534Z,962.11
2017-10-01T13:05:50.989Z,962.05
2017-10-01T13:06:51.002Z,962.10
2017-10-01T13:08:44.408Z,962.09
2017-10-01T13:09:44.395Z,962.14
2017-10-01T13:11:38.796Z,962.08
2017-10-01T13:12:38.825Z,962.05
2017-10-01T13:14:33.302Z,962.07
2017-10-01T13:15:33.224Z,961.99
2017-10-01T13:17:36.078Z,961.92
2017-10-01T13:18:27.398Z,961.90
2017-10-01T13:20:34.760Z,961.96
2017-10-01T13:21:23.156Z,961.97
2017-10-01T13:23:17.537Z,961.94
2017-10-01T13:24:25.153Z,961.92
2017-10-01T13:26:11.964Z,961.92
2017-10-01T13:27:20.608Z,961.93
2017-10-01T13:29:04.364Z,961.91
2017-10-01T13:30:04.387Z,961.93
2017-10-01T13:32:06.739Z,961.97
2017-10-01T13:33:06.460Z,961.97
2017-10-01T13:35:00.635Z,962.01
2017-10-01T13:36:01.954Z,961.97
2017-10-01T13:37:47.379Z,962.01
2017-10-01T13:38:55.477Z,962.11
2017-10-01T13:40:50.494Z,962.15
2017-10-01T13:41:51.871Z,962.02
2017-10-01T13:43:44.256Z,961.96
2017-10-01T13:44:43.207Z,961.97
2017-10-01T13:46:30.266Z,961.96
2017-10-01T13:47:39.260Z,961.95
2017-10-01T13:49:24.482Z,961.93
2017-10-01T13:50:24.572Z,961.93
2017-10-01T13:52:17.814Z,961.96
2017-10-01T13:53:17.835Z,961.92
2017-10-01T13:55:10.998Z,961.90
2017-10-01T13:56:19.166Z,961.91
2017-10-01T13:58:05.363Z,961.92
2017-10-01T13:59:05.397Z,961.90
2017-10-01T14:00:58.839Z,961.85
2017-10-01T14:01:58.755Z,961.87
2017-10-01T14:04:00.833Z,961.85
2017-10-01T14:04:53.157Z,961.83
2017-10-01T14:06:46.626Z,961.82
2017-10-01T14:07:46.559Z,961.81
2017-10-01T14:09:54.713Z,961.99
2017-10-01T14:10:54.813Z,961.78
2017-10-01T14:12:55.746Z,961.84
2017-10-01T14:13:48.288Z,961.93
2017-10-01T14:15:42.400Z,961.77
2017-10-01T14:16:42.470Z,961.79
2017-10-01T14:18:38.181Z,961.95
2017-10-01T14:19:37.694Z,961.81
2017-10-01T14:21:38.816Z,961.78
2017-10-01T14:22:38.511Z,961.95
2017-10-01T14:24:33.407Z,961.76
2017-10-01T14:25:24.612Z,961.84
2017-10-01T14:27:18.203Z,961.99
2017-10-01T14:28:18.148Z,961.93
2017-10-01T14:30:12.599Z,961.90
2017-10-01T14:31:12.590Z,961.87
2017-10-01T14:33:14.633Z,961.80
2017-10-01T14:34:05.934Z,961.82
2017-10-01T14:35:59.392Z,961.80
2017-10-01T14:36:59.409Z,961.84
2017-10-01T14:38:53.815Z,961.78
2017-10-01T14:39:53.831Z,961.77
2017-10-01T14:41:47.309Z,961.77
2017-10-01T14:42:47.239Z,961.83
2017-10-01T14:44:40.598Z,961.81
2017-10-01T14:45:40.588Z,961.83
2017-10-01T14:47:34.000Z,961.80
2017-10-01T14:48:33.995Z,961.79
2017-10-01T14:50:27.375Z,961.75
2017-10-01T14:51:27.407Z,961.76
2017-10-01T14:53:20.870Z,961.67
2017-10-01T14:54:20.840Z,961.66
2017-10-01T14:56:14.361Z,961.59
2017-10-01T14:57:14.441Z,961.63
2017-10-01T14:59:07.843Z,961.60
2017-10-01T15:00:07.774Z,961.57
2017-10-01T15:02:02.229Z,961.61
2017-10-01T15:03:02.191Z,961.62
2017-10-01T15:04:55.631Z,961.56
2017-10-01T15:05:55.564Z,961.56
2017-10-01T15:07:51.033Z,961.55
2017-10-01T15:08:51.039Z,961.51
2017-10-01T15:10:44.418Z,961.49
2017-10-01T15:11:44.436Z,961.51
2017-10-01T15:13:37.893Z,961.57
2017-10-01T15:14:37.930Z,961.58
2017-10-01T15:16:31.404Z,961.56
2017-10-01T15:17:31.365Z,961.58
2017-10-01T15:19:37.697Z,961.56
2017-10-01T15:20:27.755Z,961.52
2017-10-01T15:22:21.818Z,961.43
2017-10-01T15:23:21.242Z,961.43
2017-10-01T15:25:15.728Z,961.40
2017-10-01T15:26:15.697Z,961.43
2017-10-01T15:28:08.692Z,961.38
2017-10-01T15:29:08.815Z,961.38
2017-10-01T15:31:03.150Z,961.35
2017-10-01T15:32:03.189Z,961.30
2017-10-01T15:33:56.663Z,961.27
2017-10-01T15:34:56.591Z,961.25
2017-10-01T15:36:50.077Z,961.27
2017-10-01T15:37:49.998Z,961.25
2017-10-01T15:39:44.433Z,961.31
2017-10-01T15:40:44.437Z,961.31
2017-10-01T15:42:38.854Z,961.36
2017-10-01T15:43:38.839Z,961.32
2017-10-01T15:45:32.245Z,961.34
2017-10-01T15:46:32.300Z,961.34
2017-10-01T15:48:26.693Z,961.35
2017-10-01T15:49:26.617Z,961.31
2017-10-01T15:51:22.123Z,961.36
2017-10-01T15:52:22.072Z,961.36
2017-10-01T15:54:16.561Z,961.38
2017-10-01T15:55:16.487Z,961.40
2017-10-01T15:57:09.925Z,961.37
2017-10-01T15:58:09.890Z,961.40
2017-10-01T16:00:12.017Z,961.38
2017-10-01T16:01:04.296Z,961.40
2017-10-01T16:02:58.713Z,961.45
2017-10-01T16:03:58.734Z,961.42
2017-10-01T16:05:52.128Z,961.42
2017-10-01T16:06:52.106Z,961.45
2017-10-01T16:08:45.642Z,961.42
2017-10-01T16:09:45.608Z,961.42
2017-10-01T16:11:38.977Z,961.34
2017-10-01T16:12:38.973Z,961.33
2017-10-01T16:14:32.408Z,961.33
2017-10-01T16:15:32.482Z,961.32
2017-10-01T16:17:25.840Z,961.33
2017-10-01T16:18:25.785Z,961.33
2017-10-01T16:20:19.188Z,961.27
2017-10-01T16:21:19.178Z,961.26
2017-10-01T16:23:12.584Z,961.33
2017-10-01T16:24:12.610Z,961.38
2017-10-01T16:26:07.008Z,961.42
2017-10-01T16:27:07.068Z,961.38
2017-10-01T16:29:01.483Z,961.37
2017-10-01T16:30:01.606Z,961.38
2017-10-01T16:32:03.502Z,961.38
2017-10-01T16:32:55.931Z,961.40
2017-10-01T16:34:49.408Z,961.39
2017-10-01T16:35:49.256Z,961.41
2017-10-01T16:37:44.635Z,961.42
2017-10-01T16:38:44.681Z,961.40
2017-10-01T16:40:38.088Z,961.41
2017-10-01T16:41:38.086Z,961.40
2017-10-01T16:43:32.544Z,961.39
2017-10-01T16:44:32.603Z,961.40
2017-10-01T16:46:27.965Z,961.42
2017-10-01T16:47:27.908Z,961.40
2017-10-01T16:49:21.386Z,961.49
2017-10-01T16:50:21.338Z,961.47
2017-10-01T16:52:15.733Z,961.52
2017-10-01T16:53:15.714Z,961.52
2017-10-01T16:55:11.124Z,961.55
2017-10-01T16:56:11.182Z,961.54
2017-10-01T16:58:05.603Z,961.53
2017-10-01T16:59:05.593Z,961.53
2017-10-01T17:00:58.992Z,961.58
2017-10-01T17:01:58.988Z,961.55
2017-10-01T17:03:54.387Z,961.56
2017-10-01T17:04:54.387Z,961.55
2017-10-01T17:06:47.904Z,961.61
2017-10-01T17:07:47.776Z,961.57
2017-10-01T17:09:41.153Z,961.55
2017-10-01T17:10:41.203Z,961.53
2017-10-01T17:12:35.768Z,961.54
2017-10-01T17:13:44.275Z,961.52
2017-10-01T17:15:37.664Z,961.58
2017-10-01T17:16:30.154Z,961.61
2017-10-01T17:18:23.158Z,961.61
2017-10-01T17:19:31.886Z,961.65
2017-10-01T17:21:18.540Z,961.66
2017-10-01T17:22:18.542Z,961.71
2017-10-01T17:24:11.927Z,961.65
2017-10-01T17:25:11.982Z,961.69
2017-10-01T17:27:17.172Z,961.71
2017-10-01T17:28:07.483Z,961.75
2017-10-01T17:30:09.529Z,961.75
2017-10-01T17:31:01.824Z,961.72
2017-10-01T17:33:03.140Z,961.75
2017-10-01T17:33:55.376Z,961.75
2017-10-01T17:35:58.498Z,961.78
2017-10-01T17:36:49.785Z,961.75
2017-10-01T17:38:50.897Z,961.77
2017-10-01T17:39:43.111Z,961.74
2017-10-01T17:41:38.486Z,961.77
2017-10-01T17:42:41.165Z,961.74
2017-10-01T17:44:31.978Z,961.70
2017-10-01T17:45:31.947Z,961.76
2017-10-01T17:47:25.388Z,961.75
2017-10-01T17:48:25.420Z,961.75
2017-10-01T17:50:18.766Z,961.76
2017-10-01T17:51:18.749Z,961.76
2017-10-01T17:53:13.131Z,961.79
2017-10-01T17:54:13.147Z,961.79
2017-10-01T17:56:07.619Z,961.77
2017-10-01T17:57:07.647Z,961.79
2017-10-01T17:59:00.984Z,961.81
2017-10-01T18:00:00.967Z,961.78
2017-10-01T18:01:55.424Z,961.74
2017-10-01T18:02:55.418Z,961.77
2017-10-01T18:04:48.800Z,961.81
2017-10-01T18:05:48.834Z,961.81
2017-10-01T18:07:50.874Z,961.80
2017-10-01T18:08:43.214Z,961.82